Time;durP1;ratioP1;P1;durP2;ratioP2;P2;SDS_P1;SDS_P2;PMS_P1;PMS_P2;Temp;Humidity;BMP_temperature;BMP_pressure;BME280_temperature;BME280_humidity;BME280_pressure;Samples;Min_cycle;Max_cycle;Signal;HPM_P1;HPM_P2
2023/03/12 00:02:11;;;;;;;4.13;3.40;;;;;;;;;;5083165;28;20217;-53
2023/03/12 00:04:37;;;;;;;3.63;2.90;;;;;;;;;;5080486;28;20600;-52
2023/03/12 00:07:05;;;;;;;6.63;3.00;;;;;;;;;;5082612;28;20601;-53
2023/03/12 00:09:34;;;;;;;5.73;3.20;;;;;;;;;;5086469;28;20280;-53
2023/03/12 00:12:00;;;;;;;3.63;3.20;;;;;;;;;;5076573;28;20692;-53
2023/03/12 00:14:26;;;;;;;3.40;2.70;;;;;;;;;;5079672;28;20375;-52
2023/03/12 00:16:52;;;;;;;3.50;3.20;;;;;;;;;;5088903;28;20180;-55
2023/03/12 00:19:18;;;;;;;3.47;3.17;;;;;;;;;;5084166;28;20194;-52
2023/03/12 00:21:44;;;;;;;3.03;2.80;;;;;;;;;;5083047;28;20180;-54
2023/03/12 00:24:10;;;;;;;4.67;3.30;;;;;;;;;;5077463;28;20179;-53
2023/03/12 00:26:36;;;;;;;4.17;3.07;;;;;;;;;;5083519;28;20180;-52
2023/03/12 00:29:02;;;;;;;5.30;3.10;;;;;;;;;;5076608;28;20923;-53
2023/03/12 00:31:31;;;;;;;4.50;3.20;;;;;;;;;;5081042;28;20176;-52
2023/03/12 00:33:57;;;;;;;3.30;2.60;;;;;;;;;;5081688;28;20187;-52
2023/03/12 00:36:25;;;;;;;3.27;2.93;;;;;;;;;;5081440;28;20200;-53
2023/03/12 00:38:52;;;;;;;4.07;3.33;;;;;;;;;;5082585;28;20348;-53
2023/03/12 00:41:18;;;;;;;5.00;3.10;;;;;;;;;;5091043;28;20665;-53
2023/03/12 00:43:45;;;;;;;3.13;2.77;;;;;;;;;;5080839;28;20203;-52
2023/03/12 00:46:11;;;;;;;4.30;2.63;;;;;;;;;;5081022;28;20220;-53
2023/03/12 00:48:37;;;;;;;4.20;3.03;;;;;;;;;;5081594;28;20203;-52
2023/03/12 00:51:04;;;;;;;5.63;3.03;;;;;;;;;;5077015;28;20222;-57
2023/03/12 00:53:30;;;;;;;4.30;2.80;;;;;;;;;;5076067;28;20217;-53
2023/03/12 00:55:56;;;;;;;4.43;2.70;;;;;;;;;;5087814;28;20265;-53
2023/03/12 00:58:22;;;;;;;5.23;2.80;;;;;;;;;;5085111;28;20176;-52
2023/03/12 01:00:48;;;;;;;4.80;2.87;;;;;;;;;;5080866;28;20188;-53
2023/03/12 01:03:14;;;;;;;3.57;2.90;;;;;;;;;;5085108;28;20659;-53
2023/03/12 01:05:40;;;;;;;4.30;2.60;;;;;;;;;;5078736;28;20278;-53
2023/03/12 01:08:07;;;;;;;2.67;2.37;;;;;;;;;;5083018;28;20180;-55
2023/03/12 01:10:33;;;;;;;4.47;2.80;;;;;;;;;;5082734;28;20181;-53
2023/03/12 01:12:59;;;;;;;4.23;2.90;;;;;;;;;;5084104;28;20188;-53
2023/03/12 01:15:25;;;;;;;3.77;2.47;;;;;;;;;;5084647;28;20200;-53
2023/03/12 01:17:52;;;;;;;4.87;2.40;;;;;;;;;;5087988;28;20187;-53
2023/03/12 01:20:18;;;;;;;3.10;2.50;;;;;;;;;;5084852;28;20233;-53
2023/03/12 01:22:44;;;;;;;2.83;2.60;;;;;;;;;;5082204;28;20175;-53
2023/03/12 01:25:10;;;;;;;2.53;2.03;;;;;;;;;;5083785;28;20244;-53
2023/03/12 01:27:36;;;;;;;3.00;2.47;;;;;;;;;;5087128;28;20241;-53
2023/03/12 01:30:03;;;;;;;3.63;3.20;;;;;;;;;;5081820;28;20180;-52
2023/03/12 01:32:29;;;;;;;2.77;2.50;;;;;;;;;;5088930;28;20232;-53
2023/03/12 01:34:55;;;;;;;2.43;2.23;;;;;;;;;;5083870;28;20238;-53
2023/03/12 01:37:21;;;;;;;2.53;2.33;;;;;;;;;;5078845;28;20524;-53
2023/03/12 01:39:47;;;;;;;2.07;1.87;;;;;;;;;;5085320;28;20580;-53
2023/03/12 01:42:13;;;;;;;3.60;2.57;;;;;;;;;;5084508;28;20448;-53
2023/03/12 01:45:08;;;;;;;2.60;2.00;;;;;;;;;;5081080;28;20639;-53
2023/03/12 01:47:35;;;;;;;2.53;2.10;;;;;;;;;;5023023;28;20198;-52
2023/03/12 01:50:02;;;;;;;4.50;2.07;;;;;;;;;;5080842;28;20667;-53
2023/03/12 01:52:33;;;;;;;2.80;2.20;;;;;;;;;;5082868;28;20184;-52
2023/03/12 01:55:08;;;;;;;2.90;2.10;;;;;;;;;;5083410;28;20228;-53
2023/03/12 01:57:37;;;;;;;4.90;2.07;;;;;;;;;;5076091;28;20179;-53
2023/03/12 02:00:07;;;;;;;2.30;1.93;;;;;;;;;;5085176;28;20168;-53
2023/03/12 02:02:35;;;;;;;2.97;2.47;;;;;;;;;;5085858;28;20488;-52
2023/03/12 02:05:24;;;;;;;2.70;2.13;;;;;;;;;;5074974;28;20561;-53
2023/03/12 02:07:50;;;;;;;3.37;2.30;;;;;;;;;;5075844;28;20618;-53
2023/03/12 02:10:16;;;;;;;2.33;2.00;;;;;;;;;;5081353;28;20233;-53
2023/03/12 02:12:42;;;;;;;2.40;2.20;;;;;;;;;;5081957;28;20261;-53
2023/03/12 02:15:09;;;;;;;4.23;2.13;;;;;;;;;;5079386;28;20203;-52
2023/03/12 02:17:35;;;;;;;2.43;2.10;;;;;;;;;;5083482;28;20558;-53
2023/03/12 02:20:09;;;;;;;3.73;2.13;;;;;;;;;;5083214;28;20231;-54
2023/03/12 02:22:36;;;;;;;2.70;1.90;;;;;;;;;;5085434;28;20176;-53
2023/03/12 02:25:20;;;;;;;3.30;2.10;;;;;;;;;;5084790;28;20178;-53
2023/03/12 02:27:46;;;;;;;3.57;2.27;;;;;;;;;;5076567;28;20237;-53
2023/03/12 02:30:14;;;;;;;3.27;2.97;;;;;;;;;;5077284;28;20315;-54
2023/03/12 02:32:42;;;;;;;1.87;1.77;;;;;;;;;;5079428;28;20242;-53
2023/03/12 02:35:08;;;;;;;2.57;2.13;;;;;;;;;;5082328;28;20215;-53
2023/03/12 02:37:34;;;;;;;2.53;1.97;;;;;;;;;;5079674;28;20171;-52
2023/03/12 02:40:14;;;;;;;2.10;1.90;;;;;;;;;;5081371;28;20590;-53
2023/03/12 02:42:40;;;;;;;2.50;1.77;;;;;;;;;;5083348;28;20204;-53
2023/03/12 02:45:07;;;;;;;2.37;2.17;;;;;;;;;;5090567;28;20342;-53
2023/03/12 02:47:33;;;;;;;3.70;2.27;;;;;;;;;;5079209;28;20175;-53
2023/03/12 02:49:59;;;;;;;2.37;1.87;;;;;;;;;;5083915;28;20191;-53
2023/03/12 02:52:25;;;;;;;2.63;2.20;;;;;;;;;;5081318;28;20191;-53
2023/03/12 02:54:51;;;;;;;2.23;1.90;;;;;;;;;;5081040;28;20715;-53
2023/03/12 02:57:17;;;;;;;3.47;2.00;;;;;;;;;;5073869;28;20619;-53
2023/03/12 02:59:43;;;;;;;4.13;2.30;;;;;;;;;;5080926;28;20193;-53
2023/03/12 03:02:11;;;;;;;3.33;2.47;;;;;;;;;;5085131;28;20176;-53
2023/03/12 03:04:37;;;;;;;2.87;2.10;;;;;;;;;;5077975;28;20217;-53
2023/03/12 03:07:03;;;;;;;3.87;2.00;;;;;;;;;;5080399;28;20172;-53
2023/03/12 03:09:29;;;;;;;2.97;2.10;;;;;;;;;;5079624;28;20181;-53
2023/03/12 03:11:55;;;;;;;2.60;1.90;;;;;;;;;;5082197;28;20206;-53
2023/03/12 03:14:22;;;;;;;2.90;2.00;;;;;;;;;;5081204;28;20172;-53
2023/03/12 03:16:48;;;;;;;3.13;2.33;;;;;;;;;;5083904;28;20207;-53
2023/03/12 03:19:14;;;;;;;3.50;2.17;;;;;;;;;;5084513;28;20203;-53
2023/03/12 03:21:40;;;;;;;2.63;2.10;;;;;;;;;;5081959;28;20574;-53
2023/03/12 03:24:06;;;;;;;2.73;2.30;;;;;;;;;;5084977;28;20588;-53
2023/03/12 03:26:32;;;;;;;3.57;2.97;;;;;;;;;;5076511;28;20241;-53
2023/03/12 03:28:58;;;;;;;2.90;2.23;;;;;;;;;;5081300;28;20609;-53
2023/03/12 03:32:01;;;;;;;2.83;2.30;;;;;;;;;;5085809;28;20188;-52
2023/03/12 03:34:27;;;;;;;2.33;2.13;;;;;;;;;;5065746;28;20188;-53
2023/03/12 03:36:53;;;;;;;3.23;2.10;;;;;;;;;;5069973;28;20292;-54
2023/03/12 03:39:19;;;;;;;2.30;2.07;;;;;;;;;;5064101;28;20543;-53
2023/03/12 03:41:46;;;;;;;3.63;1.90;;;;;;;;;;5076857;28;20203;-53
2023/03/12 03:44:12;;;;;;;3.07;2.30;;;;;;;;;;5067772;28;20477;-53
2023/03/12 03:46:38;;;;;;;3.17;1.93;;;;;;;;;;5064502;28;20184;-53
2023/03/12 03:49:05;;;;;;;3.13;1.90;;;;;;;;;;5066566;28;20181;-53
2023/03/12 03:51:31;;;;;;;3.80;1.90;;;;;;;;;;5056624;28;20201;-53
2023/03/12 03:53:59;;;;;;;2.73;2.37;;;;;;;;;;5063456;28;20196;-53
2023/03/12 03:56:25;;;;;;;1.90;1.80;;;;;;;;;;5066732;28;20202;-53
2023/03/12 03:58:51;;;;;;;3.10;2.20;;;;;;;;;;5067054;28;20195;-53
2023/03/12 04:01:17;;;;;;;3.80;3.50;;;;;;;;;;5063148;28;20168;-53
2023/03/12 04:03:44;;;;;;;2.47;1.70;;;;;;;;;;5060576;28;20208;-53
2023/03/12 04:06:10;;;;;;;3.43;2.00;;;;;;;;;;5062624;28;20207;-53
2023/03/12 04:08:36;;;;;;;3.00;2.00;;;;;;;;;;5069239;28;20181;-53
2023/03/12 04:11:09;;;;;;;2.87;2.00;;;;;;;;;;5065055;28;20320;-52
2023/03/12 04:13:36;;;;;;;2.73;1.73;;;;;;;;;;5066040;28;20196;-53
2023/03/12 04:16:02;;;;;;;3.27;1.97;;;;;;;;;;5056537;28;20606;-53
2023/03/12 04:18:28;;;;;;;4.10;2.23;;;;;;;;;;5066288;28;20188;-52
2023/03/12 04:20:54;;;;;;;2.13;1.80;;;;;;;;;;5066546;28;20181;-53
2023/03/12 04:23:20;;;;;;;3.50;1.90;;;;;;;;;;5068567;28;20329;-53
2023/03/12 04:25:46;;;;;;;2.17;1.97;;;;;;;;;;5063857;28;20217;-53
2023/03/12 04:28:12;;;;;;;3.20;2.03;;;;;;;;;;5060178;28;20199;-53
2023/03/12 04:30:38;;;;;;;2.53;1.57;;;;;;;;;;5059386;28;20247;-53
2023/03/12 04:33:05;;;;;;;2.40;2.07;;;;;;;;;;5074700;28;20237;-52
2023/03/12 04:35:31;;;;;;;3.60;1.67;;;;;;;;;;5085904;28;20195;-54
2023/03/12 04:37:58;;;;;;;4.00;1.93;;;;;;;;;;5085955;28;20667;-59
2023/03/12 04:40:24;;;;;;;5.00;2.10;;;;;;;;;;5086072;28;20180;-58
2023/03/12 04:42:50;;;;;;;4.23;1.97;;;;;;;;;;5086183;28;20589;-58
2023/03/12 04:45:16;;;;;;;2.43;2.00;;;;;;;;;;5075337;28;20639;-58
2023/03/12 04:47:42;;;;;;;3.17;2.00;;;;;;;;;;5087574;28;20202;-59
2023/03/12 04:50:09;;;;;;;1.67;1.57;;;;;;;;;;5086913;28;20184;-59
2023/03/12 04:52:35;;;;;;;3.17;1.70;;;;;;;;;;5084458;28;20635;-59
2023/03/12 04:55:01;;;;;;;1.83;1.73;;;;;;;;;;5086277;28;20211;-59
2023/03/12 04:57:27;;;;;;;2.63;1.60;;;;;;;;;;5081714;28;20176;-59
2023/03/12 04:59:53;;;;;;;1.90;1.73;;;;;;;;;;5084804;28;20168;-58
2023/03/12 05:02:19;;;;;;;3.00;2.70;;;;;;;;;;5080451;28;20208;-58
2023/03/12 05:04:46;;;;;;;3.10;1.90;;;;;;;;;;5077269;28;20184;-60
2023/03/12 05:07:12;;;;;;;4.43;2.37;;;;;;;;;;5083313;28;20651;-58
2023/03/12 05:09:38;;;;;;;1.70;1.60;;;;;;;;;;5082749;28;20599;-58
2023/03/12 05:12:04;;;;;;;3.20;1.90;;;;;;;;;;5073868;28;20189;-58
2023/03/12 05:14:30;;;;;;;2.93;2.07;;;;;;;;;;5083011;28;20176;-58
2023/03/12 05:16:56;;;;;;;2.93;1.80;;;;;;;;;;5081862;28;20657;-58
2023/03/12 05:19:22;;;;;;;2.37;1.80;;;;;;;;;;5079603;28;20198;-58
2023/03/12 05:21:48;;;;;;;2.33;1.90;;;;;;;;;;5083516;28;20241;-58
2023/03/12 05:24:15;;;;;;;2.57;1.67;;;;;;;;;;5079059;28;20253;-59
2023/03/12 05:26:42;;;;;;;2.70;1.80;;;;;;;;;;5087036;28;20210;-58
2023/03/12 05:29:08;;;;;;;2.33;1.93;;;;;;;;;;5079023;28;20504;-58
2023/03/12 05:31:35;;;;;;;3.20;2.83;;;;;;;;;;5085199;28;20191;-58
2023/03/12 05:34:02;;;;;;;2.00;1.77;;;;;;;;;;5075675;28;20683;-59
2023/03/12 05:36:28;;;;;;;4.00;2.10;;;;;;;;;;5083513;28;20607;-58
2023/03/12 05:38:54;;;;;;;5.17;1.97;;;;;;;;;;5076863;28;20177;-59
2023/03/12 05:41:27;;;;;;;1.93;1.77;;;;;;;;;;5077338;28;20238;-58
2023/03/12 05:43:55;;;;;;;3.10;2.00;;;;;;;;;;5087022;28;20167;-59
2023/03/12 05:46:21;;;;;;;4.00;3.17;;;;;;;;;;5084020;28;20533;-58
2023/03/12 05:48:47;;;;;;;6.50;2.10;;;;;;;;;;5089592;28;20187;-58
2023/03/12 05:51:13;;;;;;;3.10;2.30;;;;;;;;;;5080351;28;20179;-58
2023/03/12 05:53:39;;;;;;;2.63;2.20;;;;;;;;;;5081426;28;20181;-59
2023/03/12 05:56:06;;;;;;;3.63;2.00;;;;;;;;;;5072946;28;20218;-59
2023/03/12 05:58:33;;;;;;;2.27;1.77;;;;;;;;;;5086885;28;20179;-58
2023/03/12 06:00:59;;;;;;;4.23;2.37;;;;;;;;;;5080114;28;20183;-58
2023/03/12 06:03:25;;;;;;;3.67;2.30;;;;;;;;;;5085053;28;20183;-58
2023/03/12 06:05:54;;;;;;;5.30;1.93;;;;;;;;;;5084028;28;20184;-58
2023/03/12 06:08:20;;;;;;;2.67;2.27;;;;;;;;;;5079704;28;20172;-58
2023/03/12 06:10:46;;;;;;;3.27;2.07;;;;;;;;;;5077218;28;20208;-58
2023/03/12 06:13:12;;;;;;;2.93;2.27;;;;;;;;;;5075930;28;20246;-58
2023/03/12 06:15:38;;;;;;;3.90;2.50;;;;;;;;;;5082308;28;20210;-59
2023/03/12 06:18:04;;;;;;;3.30;2.10;;;;;;;;;;5080127;28;20525;-58
2023/03/12 06:20:31;;;;;;;5.83;2.33;;;;;;;;;;5079191;28;20180;-58
2023/03/12 06:22:57;;;;;;;2.70;1.80;;;;;;;;;;5070662;28;20456;-58
2023/03/12 06:25:23;;;;;;;2.70;2.00;;;;;;;;;;5074526;28;20175;-59
2023/03/12 06:27:49;;;;;;;2.30;2.10;;;;;;;;;;5075421;28;20176;-59
2023/03/12 06:30:15;;;;;;;3.30;2.30;;;;;;;;;;5079396;28;20184;-58
2023/03/12 06:32:41;;;;;;;2.17;1.90;;;;;;;;;;5078888;28;20267;-59
2023/03/12 06:35:07;;;;;;;3.97;2.17;;;;;;;;;;5084653;28;20200;-59
2023/03/12 06:37:37;;;;;;;3.90;2.03;;;;;;;;;;5075526;28;20176;-58
2023/03/12 06:40:03;;;;;;;2.03;1.83;;;;;;;;;;5079829;28;20727;-59
2023/03/12 06:42:31;;;;;;;4.57;2.33;;;;;;;;;;5073872;28;20259;-59
2023/03/12 06:44:57;;;;;;;3.17;2.13;;;;;;;;;;5080623;28;20684;-54
2023/03/12 06:47:23;;;;;;;2.20;2.00;;;;;;;;;;5076926;28;20615;-55
2023/03/12 06:49:49;;;;;;;3.00;2.40;;;;;;;;;;5084476;28;20211;-54
2023/03/12 06:52:15;;;;;;;2.53;2.30;;;;;;;;;;5084482;28;20183;-54
2023/03/12 06:54:41;;;;;;;2.93;2.10;;;;;;;;;;5084600;28;20195;-54
2023/03/12 06:57:07;;;;;;;3.90;2.53;;;;;;;;;;5080017;28;20587;-54
2023/03/12 06:59:33;;;;;;;2.90;2.20;;;;;;;;;;5075091;28;20349;-53
2023/03/12 07:01:59;;;;;;;3.30;2.37;;;;;;;;;;5078198;28;20172;-52
2023/03/12 07:04:25;;;;;;;3.03;2.80;;;;;;;;;;5077324;28;20516;-53
2023/03/12 07:06:51;;;;;;;4.93;2.37;;;;;;;;;;5083285;28;20182;-53
2023/03/12 07:09:18;;;;;;;3.43;2.53;;;;;;;;;;5081562;28;20195;-53
2023/03/12 07:11:44;;;;;;;4.07;2.57;;;;;;;;;;5084537;28;20668;-53
2023/03/12 07:14:10;;;;;;;5.70;2.47;;;;;;;;;;5081393;28;20183;-53
2023/03/12 07:16:36;;;;;;;3.23;2.10;;;;;;;;;;5083634;28;20241;-55
2023/03/12 07:19:03;;;;;;;2.27;2.10;;;;;;;;;;5082550;28;20176;-53
2023/03/12 07:21:30;;;;;;;2.53;2.10;;;;;;;;;;5079130;28;20188;-53
2023/03/12 07:23:59;;;;;;;2.43;2.23;;;;;;;;;;5086221;28;20172;-53
2023/03/12 07:26:26;;;;;;;2.50;2.23;;;;;;;;;;5088128;28;20267;-54
2023/03/12 07:28:52;;;;;;;3.67;2.27;;;;;;;;;;5087724;28;20663;-53
2023/03/12 07:31:18;;;;;;;3.73;2.47;;;;;;;;;;5081318;28;20337;-53
2023/03/12 07:33:44;;;;;;;3.03;2.17;;;;;;;;;;5086083;28;20620;-53
2023/03/12 07:36:10;;;;;;;2.73;2.27;;;;;;;;;;5085726;28;20431;-53
2023/03/12 07:38:36;;;;;;;6.70;2.80;;;;;;;;;;5081423;28;20172;-54
2023/03/12 07:41:02;;;;;;;3.77;2.40;;;;;;;;;;5076806;28;20225;-53
2023/03/12 07:43:28;;;;;;;4.67;2.10;;;;;;;;;;5085246;28;20191;-53
2023/03/12 07:45:54;;;;;;;4.77;2.43;;;;;;;;;;5080525;28;20553;-54
2023/03/12 07:48:20;;;;;;;3.90;2.20;;;;;;;;;;5084752;28;20181;-53
2023/03/12 07:50:47;;;;;;;3.03;2.50;;;;;;;;;;5075673;28;20188;-53
2023/03/12 07:53:13;;;;;;;2.60;2.40;;;;;;;;;;5080419;28;20479;-53
2023/03/12 07:55:39;;;;;;;2.73;2.40;;;;;;;;;;5079348;28;20208;-53
2023/03/12 07:58:05;;;;;;;4.50;2.43;;;;;;;;;;5084082;28;20233;-53
2023/03/12 08:00:31;;;;;;;6.03;3.17;;;;;;;;;;5084390;28;20176;-54
2023/03/12 08:02:57;;;;;;;3.90;2.23;;;;;;;;;;5084508;28;20627;-53
2023/03/12 08:05:24;;;;;;;2.73;2.20;;;;;;;;;;5082776;28;20204;-53
2023/03/12 08:07:53;;;;;;;2.67;2.47;;;;;;;;;;5081034;28;20644;-54
2023/03/12 08:10:20;;;;;;;3.57;2.47;;;;;;;;;;5079368;28;20693;-54
2023/03/12 08:12:46;;;;;;;2.80;2.50;;;;;;;;;;5081610;28;20199;-53
2023/03/12 08:15:12;;;;;;;4.37;2.73;;;;;;;;;;5081926;28;20227;-54
2023/03/12 08:17:39;;;;;;;3.23;2.77;;;;;;;;;;5078139;28;20195;-54
2023/03/12 08:20:08;;;;;;;5.27;2.77;;;;;;;;;;5074800;28;20176;-54
2023/03/12 08:22:34;;;;;;;3.50;2.10;;;;;;;;;;5082191;28;20248;-53
2023/03/12 08:25:00;;;;;;;5.43;2.60;;;;;;;;;;5075188;28;20188;-54
2023/03/12 08:27:26;;;;;;;5.13;2.70;;;;;;;;;;5086468;28;20177;-54
2023/03/12 08:29:52;;;;;;;3.93;2.53;;;;;;;;;;5085038;28;20180;-53
2023/03/12 08:32:18;;;;;;;6.90;3.37;;;;;;;;;;5083138;28;21037;-53
2023/03/12 08:34:44;;;;;;;2.40;2.20;;;;;;;;;;5083771;28;20606;-54
2023/03/12 08:37:10;;;;;;;3.70;2.40;;;;;;;;;;5077656;28;20286;-53
2023/03/12 08:39:36;;;;;;;3.80;2.40;;;;;;;;;;5079138;28;20200;-54
2023/03/12 08:42:04;;;;;;;3.57;2.70;;;;;;;;;;5083216;28;20176;-53
2023/03/12 08:44:30;;;;;;;7.43;2.90;;;;;;;;;;5079905;28;20176;-54
2023/03/12 08:46:56;;;;;;;5.77;2.83;;;;;;;;;;5078165;28;20184;-53
2023/03/12 08:49:23;;;;;;;5.20;3.00;;;;;;;;;;5072604;28;20181;-53
2023/03/12 08:51:50;;;;;;;7.70;3.20;;;;;;;;;;5081566;28;20262;-53
2023/03/12 08:54:17;;;;;;;3.67;3.20;;;;;;;;;;5080395;28;20192;-53
2023/03/12 08:56:45;;;;;;;6.80;2.70;;;;;;;;;;5082876;28;20711;-53
2023/03/12 08:59:11;;;;;;;4.07;2.97;;;;;;;;;;5082017;28;20191;-53
2023/03/12 09:01:38;;;;;;;4.60;2.97;;;;;;;;;;5085146;28;20627;-53
2023/03/12 09:04:05;;;;;;;6.20;3.47;;;;;;;;;;5077080;28;20720;-54
2023/03/12 09:06:32;;;;;;;4.10;3.10;;;;;;;;;;5084768;28;20770;-54
2023/03/12 09:09:03;;;;;;;3.37;2.90;;;;;;;;;;5082928;28;20184;-54
2023/03/12 09:11:30;;;;;;;4.30;3.53;;;;;;;;;;5079684;28;20378;-54
2023/03/12 09:13:56;;;;;;;6.83;3.33;;;;;;;;;;5082400;28;21265;-54
2023/03/12 09:16:22;;;;;;;4.80;3.10;;;;;;;;;;5070563;28;20299;-54
2023/03/12 09:18:48;;;;;;;3.00;2.80;;;;;;;;;;5072016;28;20194;-53
2023/03/12 09:21:14;;;;;;;5.77;3.40;;;;;;;;;;5077510;28;20202;-53
2023/03/12 09:23:40;;;;;;;5.93;3.37;;;;;;;;;;5073984;28;20180;-54
2023/03/12 09:26:09;;;;;;;6.13;3.17;;;;;;;;;;5075573;28;20234;-54
2023/03/12 09:28:36;;;;;;;6.03;3.07;;;;;;;;;;5077018;28;20188;-53
2023/03/12 09:31:05;;;;;;;5.23;3.70;;;;;;;;;;5082254;28;20172;-54
2023/03/12 09:43:21;;;;;;;4.73;3.33;;;;;;;;;;5074676;28;20202;-54
2023/03/12 09:46:13;;;;;;;4.00;3.70;;;;;;;;;;5077668;28;20180;-53
2023/03/12 09:49:05;;;;;;;5.40;4.00;;;;;;;;;;5078543;28;20327;-53
2023/03/12 09:51:57;;;;;;;6.07;3.20;;;;;;;;;;5083497;28;20651;-53
2023/03/12 09:54:49;;;;;;;4.00;3.13;;;;;;;;;;5076403;28;20176;-53
2023/03/12 09:57:23;;;;;;;3.60;3.27;;;;;;;;;;5079696;28;20184;-54
2023/03/12 09:59:51;;;;;;;5.17;3.47;;;;;;;;;;5069462;28;20298;-53
2023/03/12 10:02:23;;;;;;;4.00;3.53;;;;;;;;;;5083413;28;20846;-53
2023/03/12 10:04:55;;;;;;;4.43;4.03;;;;;;;;;;5074259;28;20188;-53
2023/03/12 10:07:32;;;;;;;4.47;3.67;;;;;;;;;;5079483;28;20171;-54
2023/03/12 10:10:16;;;;;;;4.47;3.50;;;;;;;;;;5076016;28;20171;-53
2023/03/12 10:13:01;;;;;;;5.03;4.03;;;;;;;;;;5074689;28;20198;-53
2023/03/12 10:15:43;;;;;;;4.47;3.63;;;;;;;;;;5084357;28;20271;-53
2023/03/12 10:18:09;;;;;;;3.63;3.33;;;;;;;;;;5073735;28;20179;-52
2023/03/12 10:20:49;;;;;;;5.10;4.60;;;;;;;;;;5079879;28;20422;-52
2023/03/12 10:23:15;;;;;;;4.33;3.93;;;;;;;;;;5077637;28;20262;-53
2023/03/12 10:25:58;;;;;;;4.20;3.80;;;;;;;;;;5082796;28;20485;-53
2023/03/12 10:28:42;;;;;;;4.90;4.40;;;;;;;;;;5081952;28;20599;-53
2023/03/12 10:31:15;;;;;;;4.93;4.17;;;;;;;;;;5084142;28;20183;-53
2023/03/12 10:33:47;;;;;;;5.40;4.90;;;;;;;;;;5088780;28;20753;-52
2023/03/12 10:36:50;;;;;;;5.03;4.30;;;;;;;;;;5073351;28;20322;-53
2023/03/12 10:39:18;;;;;;;4.53;4.13;;;;;;;;;;5005863;28;20189;-53
2023/03/12 10:41:45;;;;;;;4.97;4.47;;;;;;;;;;5043698;28;20249;-52
2023/03/12 10:44:16;;;;;;;5.97;4.63;;;;;;;;;;5060733;28;20551;-53
2023/03/12 10:46:46;;;;;;;4.97;4.27;;;;;;;;;;5062504;28;20256;-52
2023/03/12 10:49:21;;;;;;;4.80;4.40;;;;;;;;;;5068574;28;20569;-52
2023/03/12 10:51:55;;;;;;;4.23;3.83;;;;;;;;;;5060453;28;20204;-52
2023/03/12 10:54:39;;;;;;;5.40;4.90;;;;;;;;;;5064608;28;20257;-53
2023/03/12 10:57:06;;;;;;;4.87;4.40;;;;;;;;;;5062821;28;20234;-53
2023/03/12 10:59:33;;;;;;;5.67;5.07;;;;;;;;;;5057357;28;20173;-52
2023/03/12 11:02:00;;;;;;;5.87;5.37;;;;;;;;;;5061582;28;20197;-52
2023/03/12 11:04:31;;;;;;;4.27;3.87;;;;;;;;;;5057810;28;20172;-53
2023/03/12 11:07:18;;;;;;;4.67;4.27;;;;;;;;;;5054585;28;20181;-53
2023/03/12 11:09:44;;;;;;;4.53;4.17;;;;;;;;;;5057511;28;20193;-52
2023/03/12 11:12:24;;;;;;;4.83;4.30;;;;;;;;;;5053101;28;20211;-54
2023/03/12 11:14:50;;;;;;;5.00;4.60;;;;;;;;;;5059748;28;20198;-52
2023/03/12 11:17:21;;;;;;;5.57;5.07;;;;;;;;;;5059786;28;21283;-54
2023/03/12 11:19:47;;;;;;;5.67;4.97;;;;;;;;;;5062980;28;21159;-53
2023/03/12 11:22:15;;;;;;;4.80;4.43;;;;;;;;;;5061475;28;20921;-52
2023/03/12 11:25:00;;;;;;;5.33;4.83;;;;;;;;;;5064979;28;20169;-52
2023/03/12 11:27:26;;;;;;;6.30;5.70;;;;;;;;;;5059921;28;20259;-52
2023/03/12 11:29:52;;;;;;;6.57;5.60;;;;;;;;;;5056846;28;20386;-52
2023/03/12 11:32:24;;;;;;;5.90;5.40;;;;;;;;;;5057671;28;20177;-52
2023/03/12 11:34:51;;;;;;;6.40;5.80;;;;;;;;;;5055163;28;20279;-52
2023/03/12 11:37:43;;;;;;;6.47;5.83;;;;;;;;;;5061808;28;20211;-53
2023/03/12 11:40:33;;;;;;;6.67;5.93;;;;;;;;;;5074888;28;20255;-53
2023/03/12 11:43:25;;;;;;;5.77;5.17;;;;;;;;;;5079255;28;20189;-53
2023/03/12 11:46:15;;;;;;;6.70;6.10;;;;;;;;;;5079688;28;20233;-52
2023/03/12 11:49:06;;;;;;;7.70;5.97;;;;;;;;;;5073454;28;20168;-53
2023/03/12 11:51:58;;;;;;;7.13;6.43;;;;;;;;;;5078874;28;20514;-52
2023/03/12 11:54:49;;;;;;;7.50;6.80;;;;;;;;;;5087054;28;20172;-52
2023/03/12 11:57:39;;;;;;;6.80;6.20;;;;;;;;;;5082199;28;20210;-52
2023/03/12 12:00:16;;;;;;;7.70;6.70;;;;;;;;;;5062437;28;20187;-53
2023/03/12 12:03:07;;;;;;;7.60;6.80;;;;;;;;;;5084995;28;20307;-53
2023/03/12 12:05:48;;;;;;;6.97;6.33;;;;;;;;;;5083124;28;20176;-53
2023/03/12 12:08:39;;;;;;;8.23;7.43;;;;;;;;;;5080270;28;20183;-52
2023/03/12 12:11:11;;;;;;;20.83;13.37;;;;;;;;;;5077930;28;20204;-53
2023/03/12 12:13:56;;;;;;;110.53;52.33;;;;;;;;;;5080234;28;20212;-53
2023/03/12 12:16:27;;;;;;;448.10;260.33;;;;;;;;;;5077520;28;20199;-53
2023/03/12 12:19:20;;;;;;;655.97;458.27;;;;;;;;;;5085856;28;20549;-53
2023/03/12 12:21:56;;;;;;;706.00;484.43;;;;;;;;;;5081151;28;20532;-52
2023/03/12 12:24:38;;;;;;;655.77;454.23;;;;;;;;;;5079346;28;20179;-53
2023/03/12 12:27:16;;;;;;;612.87;416.13;;;;;;;;;;5082764;28;20509;-53
2023/03/12 12:29:48;;;;;;;576.27;397.03;;;;;;;;;;5077075;28;20638;-53
2023/03/12 12:32:23;;;;;;;538.90;375.63;;;;;;;;;;5083105;28;20196;-53
2023/03/12 12:35:15;;;;;;;486.27;335.00;;;;;;;;;;5085182;28;20637;-53
2023/03/12 12:37:45;;;;;;;467.27;322.43;;;;;;;;;;5082487;28;20369;-53
2023/03/12 12:40:11;;;;;;;448.37;307.17;;;;;;;;;;5084986;28;20597;-53
2023/03/12 12:42:44;;;;;;;416.90;291.47;;;;;;;;;;5085907;28;20486;-53
2023/03/12 12:45:13;;;;;;;417.23;277.40;;;;;;;;;;5083075;28;20278;-53
2023/03/12 12:47:45;;;;;;;385.83;261.07;;;;;;;;;;5083502;28;20528;-54
2023/03/12 12:50:15;;;;;;;353.67;240.70;;;;;;;;;;5082388;28;20172;-53
2023/03/12 12:52:41;;;;;;;325.87;224.37;;;;;;;;;;5082502;28;20194;-53
2023/03/12 12:55:10;;;;;;;307.97;208.30;;;;;;;;;;5079653;28;20485;-53
2023/03/12 12:57:42;;;;;;;287.13;192.37;;;;;;;;;;5084721;28;20280;-53
2023/03/12 13:00:09;;;;;;;267.47;178.57;;;;;;;;;;5079796;28;20180;-53
2023/03/12 13:02:38;;;;;;;241.70;165.03;;;;;;;;;;5081641;28;20191;-53
2023/03/12 13:05:13;;;;;;;223.47;155.27;;;;;;;;;;5087567;28;20175;-53
2023/03/12 13:07:39;;;;;;;202.10;139.07;;;;;;;;;;5089359;28;20178;-53
2023/03/12 13:10:06;;;;;;;194.93;133.03;;;;;;;;;;5079395;28;20184;-53
2023/03/12 13:12:33;;;;;;;173.67;122.73;;;;;;;;;;5088375;28;20203;-53
2023/03/12 13:15:00;;;;;;;159.60;109.90;;;;;;;;;;5085705;28;20203;-53
2023/03/12 13:17:36;;;;;;;147.23;105.60;;;;;;;;;;5083454;28;20183;-53
2023/03/12 13:20:11;;;;;;;143.27;97.00;;;;;;;;;;5076405;28;20180;-53
2023/03/12 13:22:44;;;;;;;131.93;95.60;;;;;;;;;;5086447;28;20244;-54
2023/03/12 13:25:20;;;;;;;119.90;86.67;;;;;;;;;;5081310;28;20263;-54
2023/03/12 13:27:46;;;;;;;119.53;85.03;;;;;;;;;;5084788;28;20321;-53
2023/03/12 13:30:31;;;;;;;112.87;79.40;;;;;;;;;;5073938;28;20168;-53
2023/03/12 13:32:57;;;;;;;103.53;73.87;;;;;;;;;;5084464;28;20176;-53
2023/03/12 13:35:23;;;;;;;97.03;71.03;;;;;;;;;;5080895;28;20200;-53
2023/03/12 13:37:52;;;;;;;91.27;66.53;;;;;;;;;;5083827;28;20246;-53
2023/03/12 13:40:53;;;;;;;94.43;66.33;;;;;;;;;;5083448;28;20591;-53
2023/03/12 13:43:37;;;;;;;85.80;59.67;;;;;;;;;;5079697;28;20176;-53
2023/03/12 13:46:09;;;;;;;75.77;53.37;;;;;;;;;;5083168;28;20698;-53
2023/03/12 13:48:43;;;;;;;72.80;50.90;;;;;;;;;;5086483;28;20194;-53
2023/03/12 13:51:23;;;;;;;72.83;50.73;;;;;;;;;;5082243;28;20257;-53
2023/03/12 13:53:55;;;;;;;64.47;44.67;;;;;;;;;;5083963;28;20183;-53
2023/03/12 13:56:26;;;;;;;59.77;40.97;;;;;;;;;;5079904;28;20854;-53
2023/03/12 13:59:02;;;;;;;54.13;37.93;;;;;;;;;;5081630;28;20229;-53
2023/03/12 14:01:34;;;;;;;53.33;35.53;;;;;;;;;;5086364;28;20778;-53
2023/03/12 14:04:05;;;;;;;54.13;38.27;;;;;;;;;;5082947;28;20172;-53
2023/03/12 14:06:35;;;;;;;53.67;36.83;;;;;;;;;;5083163;28;20188;-54
2023/03/12 14:09:01;;;;;;;54.87;36.63;;;;;;;;;;5085120;28;20659;-53
2023/03/12 14:11:47;;;;;;;41.93;32.27;;;;;;;;;;5084724;28;20369;-53
2023/03/12 14:14:15;;;;;;;46.63;32.20;;;;;;;;;;5084112;28;20670;-53
2023/03/12 14:16:48;;;;;;;45.00;30.20;;;;;;;;;;5085463;28;20318;-57
2023/03/12 14:19:15;;;;;;;40.80;29.07;;;;;;;;;;5081131;28;20258;-54
2023/03/12 14:21:43;;;;;;;38.67;27.83;;;;;;;;;;5085212;28;20168;-54
2023/03/12 14:24:16;;;;;;;39.47;26.93;;;;;;;;;;5085456;28;20195;-53
2023/03/12 14:26:45;;;;;;;33.07;24.70;;;;;;;;;;5082444;28;20211;-53
2023/03/12 14:29:30;;;;;;;31.57;22.57;;;;;;;;;;5084255;28;20178;-54
2023/03/12 14:31:57;;;;;;;31.40;22.67;;;;;;;;;;5084707;28;20587;-54
2023/03/12 14:34:25;;;;;;;34.10;23.07;;;;;;;;;;5086867;28;20198;-53
2023/03/12 14:37:04;;;;;;;36.03;22.03;;;;;;;;;;5083231;28;20195;-53
2023/03/12 14:39:45;;;;;;;28.33;20.67;;;;;;;;;;5080148;28;20295;-53
2023/03/12 14:42:18;;;;;;;34.23;18.80;;;;;;;;;;5081479;28;20291;-53
2023/03/12 14:44:52;;;;;;;25.83;18.47;;;;;;;;;;5080218;28;20320;-53
2023/03/12 14:47:18;;;;;;;27.23;17.33;;;;;;;;;;5093211;28;20178;-53
2023/03/12 14:49:46;;;;;;;24.13;17.47;;;;;;;;;;5082207;28;20184;-53
2023/03/12 14:52:13;;;;;;;28.20;17.93;;;;;;;;;;5075380;28;20576;-53
2023/03/12 14:54:39;;;;;;;28.43;16.90;;;;;;;;;;5086960;28;20184;-53
2023/03/12 14:57:05;;;;;;;24.47;15.10;;;;;;;;;;5081780;28;20226;-53
2023/03/12 14:59:37;;;;;;;21.27;14.67;;;;;;;;;;5077209;28;20728;-54
2023/03/12 15:02:10;;;;;;;24.13;15.73;;;;;;;;;;5083683;28;20252;-53